Time;durP1;ratioP1;P1;durP2;ratioP2;P2;SDS_P1;SDS_P2;PMS_P1;PMS_P2;Temp;Humidity;BMP_temperature;BMP_pressure;BME280_temperature;BME280_humidity;BME280_pressure;Samples;Min_cycle;Max_cycle;Signal;HPM_P1;HPM_P2
2021/03/13 06:05:14;;;;;;;13.93;5.67;;;4.90;99.90;;;;;;6161268;23;20212;-89
2021/03/13 06:07:42;;;;;;;17.93;5.70;;;4.90;99.90;;;;;;6156173;23;20153;-87
2021/03/13 06:10:09;;;;;;;17.33;6.60;;;4.80;99.90;;;;;;6156315;23;20153;-88
2021/03/13 06:12:34;;;;;;;17.80;5.93;;;4.80;99.90;;;;;;6151980;23;20601;-88
2021/03/13 06:15:00;;;;;;;20.17;6.17;;;4.80;99.90;;;;;;6151005;23;20165;-88
2021/03/13 07:09:13;;;;;;;14.20;5.83;;;5.00;99.90;;;;;;6156442;23;20207;-83
2021/03/13 07:11:38;;;;;;;16.87;6.80;;;5.00;99.90;;;;;;6154195;23;20154;-84
2021/03/13 07:14:04;;;;;;;14.77;6.60;;;5.10;99.90;;;;;;6153397;23;20514;-83
2021/03/13 07:16:38;;;;;;;17.57;7.17;;;5.00;99.90;;;;;;6157222;23;20152;-83
2021/03/13 07:19:12;;;;;;;17.77;7.50;;;5.10;99.90;;;;;;6148746;23;20180;-83
2021/03/13 07:26:50;;;;;;;27.33;8.00;;;5.10;99.90;;;;;;6156317;23;20206;-84
2021/03/13 07:29:19;;;;;;;17.40;7.00;;;5.10;99.90;;;;;;6153478;23;20229;-84
2021/03/13 07:31:56;;;;;;;15.27;6.73;;;5.10;99.90;;;;;;6155205;23;20185;-84
2021/03/13 07:34:28;;;;;;;17.10;7.33;;;5.10;99.90;;;;;;6154915;23;20150;-87
2021/03/13 07:36:57;;;;;;;17.73;7.10;;;5.10;99.90;;;;;;6157023;23;20179;-84
2021/03/13 07:39:28;;;;;;;16.97;6.63;;;5.10;99.90;;;;;;6155858;23;20162;-85
2021/03/13 07:42:00;;;;;;;15.50;7.10;;;5.10;99.90;;;;;;6154208;23;20171;-83
2021/03/13 07:44:26;;;;;;;14.70;6.37;;;5.10;99.90;;;;;;6155102;23;20212;-83
2021/03/13 07:46:53;;;;;;;16.90;7.20;;;5.20;99.90;;;;;;6156092;23;20252;-82
2021/03/13 07:49:21;;;;;;;13.83;6.03;;;5.20;99.90;;;;;;6153635;23;20204;-84
2021/03/13 07:51:47;;;;;;;15.03;5.87;;;5.20;99.90;;;;;;6154922;23;20180;-84
2021/03/13 07:54:14;;;;;;;16.73;6.00;;;5.20;99.90;;;;;;6155385;23;20162;-85
2021/03/13 07:56:42;;;;;;;11.60;6.10;;;5.20;99.90;;;;;;6156226;23;20171;-85
2021/03/13 07:59:12;;;;;;;16.83;6.47;;;5.20;99.90;;;;;;6156621;23;20523;-86
2021/03/13 08:01:51;;;;;;;16.43;5.87;;;5.20;99.90;;;;;;6155337;23;20254;-84
2021/03/13 08:04:41;;;;;;;13.43;6.30;;;5.20;99.90;;;;;;6153380;23;20180;-85
2021/03/13 08:07:07;;;;;;;15.30;5.57;;;5.20;99.90;;;;;;6156084;23;20221;-86
2021/03/13 08:09:41;;;;;;;13.83;5.93;;;5.20;99.90;;;;;;6152290;23;20165;-85
2021/03/13 08:12:07;;;;;;;13.17;5.87;;;5.20;99.90;;;;;;6153669;23;20143;-85
2021/03/13 08:14:34;;;;;;;12.43;5.70;;;5.20;99.90;;;;;;6153678;23;20164;-86
2021/03/13 08:17:13;;;;;;;13.70;5.90;;;5.20;99.90;;;;;;6155761;23;20206;-86
2021/03/13 08:19:44;;;;;;;17.27;7.20;;;5.20;99.90;;;;;;6155333;23;20478;-84
2021/03/13 08:22:23;;;;;;;14.17;6.63;;;5.20;99.90;;;;;;6155739;23;20609;-83
2021/03/13 08:24:51;;;;;;;14.53;6.87;;;5.20;99.90;;;;;;6156000;23;20198;-85
2021/03/13 08:27:38;;;;;;;11.90;5.90;;;5.20;99.90;;;;;;6154916;23;20195;-84
2021/03/13 08:30:24;;;;;;;14.43;6.27;;;5.20;99.90;;;;;;6155602;23;20205;-84
2021/03/13 08:33:06;;;;;;;11.83;6.13;;;5.20;99.90;;;;;;6156361;23;20156;-84
2021/03/13 08:36:14;;;;;;;11.10;5.10;;;5.20;99.90;;;;;;6156187;23;20172;-83
2021/03/13 08:39:02;;;;;;;11.37;5.03;;;5.20;99.90;;;;;;6155858;23;20276;-84
2021/03/13 08:41:43;;;;;;;12.73;4.53;;;5.10;99.90;;;;;;6156446;23;20581;-84
2021/03/13 08:44:11;;;;;;;9.10;3.97;;;5.20;99.90;;;;;;6155660;23;20188;-84
2021/03/13 08:46:53;;;;;;;8.43;3.20;;;5.10;99.90;;;;;;6155996;23;20171;-86
2021/03/13 08:49:26;;;;;;;10.00;2.80;;;5.10;99.90;;;;;;6159010;23;20137;-84
2021/03/13 08:52:07;;;;;;;7.77;3.50;;;5.10;99.90;;;;;;6157721;23;20157;-83
2021/03/13 08:54:38;;;;;;;7.87;3.37;;;5.00;99.90;;;;;;6157346;23;20184;-85
2021/03/13 08:57:11;;;;;;;8.33;3.40;;;5.00;99.90;;;;;;6155729;23;20210;-84
2021/03/13 08:59:39;;;;;;;7.97;3.37;;;4.80;99.90;;;;;;6156494;23;20149;-84
2021/03/13 09:02:07;;;;;;;8.97;3.67;;;4.80;99.90;;;;;;6156663;23;20620;-84
2021/03/13 09:04:35;;;;;;;6.70;2.67;;;4.80;99.90;;;;;;6156664;23;20244;-84
2021/03/13 09:07:03;;;;;;;7.77;2.70;;;4.80;99.90;;;;;;6156139;23;20187;-85
2021/03/13 09:09:30;;;;;;;8.47;3.10;;;4.80;99.90;;;;;;6155936;23;20229;-84
2021/03/13 09:11:58;;;;;;;6.87;2.80;;;4.80;99.90;;;;;;6155845;23;20156;-84
2021/03/13 09:14:24;;;;;;;6.87;2.80;;;4.80;99.90;;;;;;6156835;23;20194;-83
2021/03/13 09:16:50;;;;;;;8.23;3.53;;;4.80;99.90;;;;;;6157095;23;20177;-84
2021/03/13 09:19:16;;;;;;;7.50;3.10;;;4.80;99.90;;;;;;6156892;23;20293;-85
2021/03/13 09:21:46;;;;;;;7.53;3.10;;;4.70;99.90;;;;;;6159031;23;20179;-85
2021/03/13 09:24:15;;;;;;;7.20;3.07;;;4.70;99.90;;;;;;6158801;23;20178;-85
2021/03/13 09:26:41;;;;;;;6.33;2.60;;;4.70;99.90;;;;;;6155308;23;20199;-84
2021/03/13 09:29:07;;;;;;;5.87;2.40;;;4.70;99.90;;;;;;6157459;23;20144;-84
2021/03/13 09:31:33;;;;;;;5.70;2.10;;;4.70;99.90;;;;;;6157082;23;20237;-84
2021/03/13 09:34:15;;;;;;;5.53;2.30;;;4.60;99.90;;;;;;6156031;23;20158;-84
2021/03/13 09:36:41;;;;;;;5.50;2.33;;;4.70;99.90;;;;;;6154581;23;20193;-84
2021/03/13 09:39:07;;;;;;;5.30;1.83;;;4.70;99.90;;;;;;6155541;23;20489;-83
2021/03/13 09:41:32;;;;;;;4.27;1.70;;;4.60;99.90;;;;;;6157210;23;20156;-82
2021/03/13 09:43:58;;;;;;;4.37;1.63;;;4.70;99.90;;;;;;6156274;23;20192;-84
2021/03/13 09:46:24;;;;;;;3.43;1.30;;;4.70;99.90;;;;;;6153919;23;20256;-83
2021/03/13 09:48:50;;;;;;;5.23;1.73;;;4.60;99.90;;;;;;6154462;23;20188;-83
2021/03/13 09:51:17;;;;;;;3.00;1.20;;;4.60;99.90;;;;;;6155663;23;20487;-84
2021/03/13 09:53:43;;;;;;;3.77;1.20;;;4.60;99.90;;;;;;6157409;23;20138;-82
2021/03/13 09:56:08;;;;;;;4.40;1.40;;;4.60;99.90;;;;;;6153630;23;20163;-84
2021/03/13 09:58:34;;;;;;;3.00;1.20;;;4.60;99.90;;;;;;6156466;23;20775;-83
2021/03/13 10:01:00;;;;;;;3.80;1.50;;;4.60;99.90;;;;;;6155095;23;20818;-83
2021/03/13 10:03:26;;;;;;;2.67;1.10;;;4.60;99.90;;;;;;6157919;23;20191;-84
2021/03/13 10:05:53;;;;;;;3.57;1.03;;;4.60;99.90;;;;;;6155393;23;20269;-85
2021/03/13 10:08:19;;;;;;;3.50;1.07;;;4.60;99.90;;;;;;6154503;23;20188;-84
2021/03/13 10:10:51;;;;;;;3.13;1.10;;;4.60;99.90;;;;;;6156117;23;20172;-84
2021/03/13 10:13:17;;;;;;;3.20;1.20;;;4.70;99.90;;;;;;6155515;23;20145;-84
2021/03/13 10:15:44;;;;;;;3.43;1.30;;;4.70;99.90;;;;;;6153855;23;20644;-84
2021/03/13 10:18:13;;;;;;;3.53;0.87;;;4.70;99.90;;;;;;6154853;23;20212;-83
2021/03/13 10:21:01;;;;;;;3.67;1.00;;;4.70;99.90;;;;;;6155445;23;20642;-84
2021/03/13 10:23:35;;;;;;;4.67;1.47;;;4.80;99.90;;;;;;6156640;23;20622;-84
2021/03/13 10:26:03;;;;;;;3.57;1.30;;;4.80;99.90;;;;;;6152869;23;20194;-85
2021/03/13 10:28:39;;;;;;;4.37;1.23;;;4.90;99.90;;;;;;6155673;23;20165;-84
2021/03/13 10:31:11;;;;;;;3.03;0.93;;;4.90;99.90;;;;;;6153503;23;20185;-85
2021/03/13 10:33:38;;;;;;;3.17;1.23;;;5.00;99.90;;;;;;6156482;23;20147;-85
2021/03/13 10:36:04;;;;;;;2.63;1.07;;;5.10;99.90;;;;;;6157291;23;20157;-85
2021/03/13 10:38:43;;;;;;;4.53;1.17;;;5.10;99.90;;;;;;6157763;23;20180;-83
2021/03/13 10:41:11;;;;;;;4.00;1.23;;;5.10;99.90;;;;;;6157506;23;20525;-84
2021/03/13 10:43:42;;;;;;;2.97;1.13;;;5.10;99.90;;;;;;6156026;23;20161;-86
2021/03/13 10:46:12;;;;;;;3.93;1.50;;;5.20;99.90;;;;;;6157840;23;20474;-85
2021/03/13 10:48:58;;;;;;;3.60;1.10;;;5.20;99.90;;;;;;6157046;23;20157;-85
2021/03/13 10:51:29;;;;;;;4.60;1.30;;;5.20;99.90;;;;;;6157185;23;20154;-85
2021/03/13 10:53:59;;;;;;;6.53;1.93;;;5.20;99.90;;;;;;6159311;23;20221;-86
2021/03/13 10:56:43;;;;;;;3.60;1.23;;;5.20;99.90;;;;;;6156786;23;20200;-85
2021/03/13 10:59:09;;;;;;;4.73;1.07;;;5.30;99.90;;;;;;6156150;23;20142;-85
2021/03/13 11:01:35;;;;;;;6.37;1.50;;;5.30;99.90;;;;;;6156877;23;20153;-87
2021/03/13 11:04:01;;;;;;;5.50;1.17;;;5.40;99.90;;;;;;6158357;23;20170;-86
2021/03/13 11:06:32;;;;;;;7.77;1.10;;;5.50;99.90;;;;;;6156481;23;20204;-86
2021/03/13 11:09:00;;;;;;;6.57;1.13;;;5.70;99.90;;;;;;6155740;23;20213;-85
2021/03/13 11:11:26;;;;;;;5.50;1.80;;;5.90;99.90;;;;;;6154212;23;20263;-85
2021/03/13 11:13:52;;;;;;;5.40;1.20;;;6.00;99.90;;;;;;6156820;23;20148;-85
2021/03/13 11:16:22;;;;;;;8.33;1.00;;;6.10;99.90;;;;;;6150619;23;20159;-86
2021/03/13 11:18:48;;;;;;;7.20;1.10;;;6.20;99.90;;;;;;6150452;23;20155;-85
2021/03/13 11:21:14;;;;;;;8.40;1.90;;;6.30;99.90;;;;;;6147284;23;20185;-84
2021/03/13 11:23:39;;;;;;;7.23;1.43;;;6.30;99.90;;;;;;6150559;23;20164;-84
2021/03/13 11:26:05;;;;;;;7.67;1.23;;;6.40;99.90;;;;;;6151889;23;20583;-84
2021/03/13 11:28:30;;;;;;;11.27;1.40;;;6.40;99.90;;;;;;6152016;23;20513;-83
2021/03/13 11:30:56;;;;;;;10.47;1.73;;;6.40;99.90;;;;;;6154563;23;20578;-85
2021/03/13 11:33:22;;;;;;;8.53;1.53;;;6.40;99.90;;;;;;6153331;23;20153;-84
2021/03/13 11:35:47;;;;;;;9.80;1.33;;;6.40;99.90;;;;;;6153648;23;20153;-85
2021/03/13 11:38:13;;;;;;;8.27;1.10;;;6.40;99.90;;;;;;6153470;23;20202;-84
2021/03/13 11:40:40;;;;;;;8.50;1.77;;;6.30;99.90;;;;;;6153231;23;20159;-85
2021/03/13 11:43:05;;;;;;;6.67;1.67;;;6.40;99.90;;;;;;6153715;23;20168;-84
2021/03/13 11:45:31;;;;;;;15.07;1.80;;;6.50;99.90;;;;;;6153341;23;20717;-85
2021/03/13 11:47:57;;;;;;;13.77;1.80;;;6.50;99.90;;;;;;6154702;23;20636;-85
2021/03/13 11:50:25;;;;;;;12.40;1.40;;;6.60;99.90;;;;;;6154244;23;20202;-86
2021/03/13 11:52:52;;;;;;;10.30;1.50;;;6.60;99.90;;;;;;6152496;23;20211;-85
2021/03/13 11:55:18;;;;;;;10.30;1.50;;;6.60;99.90;;;;;;6153803;23;20188;-84
2021/03/13 11:57:43;;;;;;;12.87;2.50;;;6.60;99.90;;;;;;6153271;23;20173;-87
2021/03/13 12:00:10;;;;;;;8.83;1.57;;;6.60;99.90;;;;;;6150946;23;20207;-85
2021/03/13 12:02:37;;;;;;;12.10;2.00;;;6.70;99.90;;;;;;6153414;23;20445;-85
2021/03/13 12:05:04;;;;;;;7.87;1.50;;;6.70;99.90;;;;;;6160664;23;20173;-86
2021/03/13 12:07:30;;;;;;;9.53;1.73;;;6.80;99.90;;;;;;6154614;23;20183;-83
2021/03/13 12:09:55;;;;;;;9.43;1.60;;;7.00;99.90;;;;;;6152878;23;20153;-84
2021/03/13 12:12:21;;;;;;;8.70;1.73;;;6.90;99.90;;;;;;6156712;23;20224;-86
2021/03/13 12:14:47;;;;;;;8.77;1.80;;;6.80;99.90;;;;;;6156938;23;20198;-85
2021/03/13 12:17:12;;;;;;;9.17;1.20;;;6.80;99.90;;;;;;6157049;23;20173;-85
2021/03/13 12:19:40;;;;;;;10.67;1.80;;;6.80;99.90;;;;;;6152637;23;20148;-85
2021/03/13 12:22:07;;;;;;;14.80;2.47;;;6.90;99.90;;;;;;6154827;23;20145;-85
2021/03/13 12:24:34;;;;;;;15.13;2.37;;;7.10;99.90;;;;;;6154962;23;20255;-86
2021/03/13 12:27:00;;;;;;;12.87;2.47;;;7.10;99.90;;;;;;6152369;23;20664;-85
2021/03/13 12:29:26;;;;;;;11.33;1.63;;;7.20;99.90;;;;;;6158228;23;20172;-85
2021/03/13 12:31:52;;;;;;;14.73;2.20;;;7.20;99.90;;;;;;6156278;23;20159;-84
2021/03/13 12:34:18;;;;;;;9.50;2.30;;;7.20;99.90;;;;;;6156192;23;20180;-85
2021/03/13 12:36:45;;;;;;;15.53;2.17;;;7.20;99.90;;;;;;6155936;23;20169;-83
2021/03/13 12:39:10;;;;;;;20.63;2.43;;;7.30;99.90;;;;;;6155060;23;20227;-84
2021/03/13 12:41:36;;;;;;;10.77;2.30;;;7.40;99.90;;;;;;6155527;23;20152;-84
2021/03/13 12:44:02;;;;;;;10.63;1.97;;;7.30;99.90;;;;;;6155169;23;20156;-86
2021/03/13 12:46:28;;;;;;;11.07;2.73;;;7.20;99.90;;;;;;6156838;23;20276;-86
2021/03/13 12:48:53;;;;;;;14.80;3.40;;;7.40;99.90;;;;;;6160287;23;20141;-85
2021/03/13 12:51:19;;;;;;;16.03;3.20;;;7.40;99.90;;;;;;6156761;23;20145;-86
2021/03/13 12:53:46;;;;;;;15.63;3.00;;;7.50;99.90;;;;;;6158440;23;20589;-87
2021/03/13 12:56:12;;;;;;;13.57;2.77;;;7.50;99.90;;;;;;6158265;23;20184;-86
2021/03/13 12:58:38;;;;;;;14.70;2.83;;;7.50;99.90;;;;;;6153212;23;20196;-85
2021/03/13 13:01:05;;;;;;;11.93;2.43;;;7.50;99.90;;;;;;6151341;23;20161;-84
2021/03/13 13:03:31;;;;;;;14.30;3.00;;;7.40;99.90;;;;;;6155207;23;20188;-84
2021/03/13 13:05:57;;;;;;;13.23;3.33;;;7.50;99.90;;;;;;6155408;23;20188;-86
2021/03/13 13:08:23;;;;;;;13.53;2.50;;;7.40;99.90;;;;;;6157439;23;20556;-85
2021/03/13 13:10:49;;;;;;;14.00;3.20;;;7.40;99.90;;;;;;6156171;23;20224;-85
2021/03/13 13:13:20;;;;;;;20.20;3.10;;;7.40;99.90;;;;;;6156834;23;20597;-84
2021/03/13 13:15:47;;;;;;;13.77;2.77;;;7.40;99.90;;;;;;6157381;23;20149;-84
2021/03/13 13:18:16;;;;;;;17.33;2.80;;;7.30;99.90;;;;;;6155732;23;20551;-85
2021/03/13 13:20:43;;;;;;;14.07;3.33;;;7.50;99.90;;;;;;6155401;23;20200;-85
2021/03/13 13:23:09;;;;;;;13.03;2.60;;;7.60;99.90;;;;;;6157755;23;20179;-84
2021/03/13 13:25:35;;;;;;;16.07;2.50;;;7.60;99.90;;;;;;6156385;23;20188;-85
2021/03/13 21:22:06;;;;;;;6.23;1.50;;;4.10;99.90;;;;;;6219269;23;20230;-86
2021/03/13 21:24:32;;;;;;;6.87;2.00;;;4.10;99.90;;;;;;6191223;23;20538;-87
2021/03/13 21:26:58;;;;;;;5.27;1.60;;;4.20;99.90;;;;;;6191155;23;20148;-87
2021/03/13 21:29:23;;;;;;;6.03;1.73;;;4.30;99.90;;;;;;6189598;23;20183;-86
2021/03/13 21:31:49;;;;;;;5.70;1.67;;;4.20;99.90;;;;;;6217573;23;20148;-88
